createdAt,value
2023-04-18T00:01:52.014Z,100300.59
2023-04-18T00:04:19.587Z,100304.34
2023-04-18T00:06:47.573Z,100303.78
2023-04-18T00:09:14.351Z,100300.94
2023-04-18T00:11:41.192Z,100301.94
2023-04-18T00:14:08.814Z,100302.31
2023-04-18T00:16:36.438Z,100297.16
2023-04-18T00:19:04.747Z,100295.94
2023-04-18T00:21:32.407Z,100299.16
2023-04-18T00:23:59.323Z,100290.78
2023-04-18T00:26:26.916Z,100291.78
2023-04-18T00:28:57.017Z,100289.41
2023-04-18T00:31:23.939Z,100294.78
2023-04-18T00:33:50.973Z,100293.41
2023-04-18T00:36:17.739Z,100290.94
2023-04-18T00:38:44.485Z,100289.75
2023-04-18T00:41:11.231Z,100295.22
2023-04-18T00:43:38.014Z,100284.22
2023-04-18T00:46:04.817Z,100286.06
2023-04-18T00:48:31.909Z,100280.25
2023-04-18T00:51:00.573Z,100288.91
2023-04-18T00:53:27.596Z,100293.25
2023-04-18T00:55:55.099Z,100288.75
2023-04-18T00:58:22.194Z,100289.25
2023-04-18T01:00:48.907Z,100291.25
2023-04-18T01:03:21.066Z,100283.59
2023-04-18T01:05:47.860Z,100283.25
2023-04-18T01:08:14.981Z,100284.53
2023-04-18T01:10:41.887Z,100279.38
2023-04-18T01:13:17.000Z,100283.19
2023-04-18T01:15:45.354Z,100285.66
2023-04-18T01:18:13.474Z,100283.50
2023-04-18T01:20:44.131Z,100276.03
2023-04-18T01:23:10.993Z,100273.13
2023-04-18T01:25:38.040Z,100263.47
2023-04-18T01:28:06.473Z,100274.16
2023-04-18T01:30:34.288Z,100279.75
2023-04-18T01:33:02.711Z,100275.31
2023-04-18T01:35:29.845Z,100271.81
2023-04-18T01:37:57.502Z,100280.50
2023-04-18T01:40:24.869Z,100267.09
2023-04-18T01:42:51.755Z,100269.13
2023-04-18T01:45:22.693Z,100273.09
2023-04-18T01:47:49.669Z,100265.75
2023-04-18T01:50:16.518Z,100272.56
2023-04-18T01:52:43.411Z,100263.03
2023-04-18T01:55:10.617Z,100262.19
2023-04-18T01:57:37.361Z,100266.53
2023-04-18T02:00:06.536Z,100259.84
2023-04-18T02:02:33.572Z,100257.69
2023-04-18T02:05:00.514Z,100252.03
2023-04-18T02:07:27.301Z,100259.06
2023-04-18T02:09:54.120Z,100254.34
2023-04-18T02:12:21.220Z,100260.00
2023-04-18T02:14:51.948Z,100259.16
2023-04-18T02:17:19.720Z,100254.25
2023-04-18T02:19:46.869Z,100258.16
2023-04-18T02:22:13.630Z,100261.97
2023-04-18T02:24:40.489Z,100250.00
2023-04-18T02:27:07.217Z,100256.91
2023-04-18T02:29:33.944Z,100254.50
2023-04-18T02:32:00.726Z,100254.19
2023-04-18T02:34:27.452Z,100260.25
2023-04-18T02:36:54.230Z,100257.38
2023-04-18T02:39:21.271Z,100257.59
2023-04-18T02:41:48.037Z,100256.03
2023-04-18T02:44:15.122Z,100251.00
2023-04-18T02:46:42.079Z,100250.00
2023-04-18T02:49:08.805Z,100246.50
2023-04-18T02:51:35.734Z,100249.47
2023-04-18T02:54:02.495Z,100242.66
2023-04-18T02:56:29.243Z,100241.31
2023-04-18T02:58:56.010Z,100241.00
2023-04-18T03:01:22.811Z,100245.13
2023-04-18T03:03:49.556Z,100248.31
2023-04-18T03:06:16.418Z,100245.66
2023-04-18T03:08:43.227Z,100244.34
2023-04-18T03:11:10.077Z,100254.50
2023-04-18T03:13:37.080Z,100247.69
2023-04-18T03:16:04.068Z,100253.03
2023-04-18T03:18:30.889Z,100245.00
2023-04-18T03:20:57.710Z,100247.69
2023-04-18T03:23:24.753Z,100255.72
2023-04-18T03:25:51.932Z,100251.09
2023-04-18T03:28:18.745Z,100249.41
2023-04-18T03:30:48.259Z,100246.06
2023-04-18T03:33:17.323Z,100250.75
2023-04-18T03:35:44.111Z,100245.78
2023-04-18T03:38:11.085Z,100247.44
2023-04-18T03:40:37.835Z,100249.63
2023-04-18T03:43:04.570Z,100249.97
2023-04-18T03:45:31.501Z,100248.81
2023-04-18T03:47:58.345Z,100264.19
2023-04-18T03:50:26.080Z,100256.84
2023-04-18T03:52:53.149Z,100260.50
2023-04-18T03:55:20.883Z,100256.69
2023-04-18T03:57:48.237Z,100256.84
2023-04-18T04:00:18.256Z,100269.72
2023-04-18T04:02:45.364Z,100268.53
2023-04-18T04:05:12.244Z,100263.19
2023-04-18T04:07:39.089Z,100266.06
2023-04-18T04:10:06.581Z,100268.38
2023-04-18T04:12:33.279Z,100262.75
2023-04-18T04:15:00.056Z,100266.25
2023-04-18T04:17:26.936Z,100268.25
2023-04-18T04:19:53.697Z,100266.56
2023-04-18T04:22:20.496Z,100264.56
2023-04-18T04:24:47.793Z,100259.91
2023-04-18T04:27:14.544Z,100264.59
2023-04-18T04:29:41.809Z,100261.41
2023-04-18T04:32:08.701Z,100255.38
2023-04-18T04:34:36.043Z,100266.59
2023-04-18T04:37:03.603Z,100264.25
2023-04-18T04:39:30.563Z,100272.25
2023-04-18T04:42:01.547Z,100274.59
2023-04-18T04:44:28.587Z,100275.94
2023-04-18T04:46:55.315Z,100269.59
2023-04-18T04:49:22.323Z,100278.00
2023-04-18T04:51:49.254Z,100279.34
2023-04-18T04:54:16.410Z,100276.00
2023-04-18T04:56:43.413Z,100273.28
2023-04-18T04:59:10.264Z,100272.63
2023-04-18T05:01:37.120Z,100271.97
2023-04-18T05:04:04.200Z,100268.13
2023-04-18T05:06:31.482Z,100265.47
2023-04-18T05:08:59.803Z,100264.78
2023-04-18T05:11:27.193Z,100272.16
2023-04-18T05:13:54.264Z,100274.31
2023-04-18T05:16:21.198Z,100274.31
2023-04-18T05:18:47.969Z,100288.00
2023-04-18T05:21:14.709Z,100287.34
2023-04-18T05:23:41.512Z,100292.84
2023-04-18T05:26:08.449Z,100282.66
2023-04-18T05:28:35.252Z,100292.00
2023-04-18T05:31:02.493Z,100289.84
2023-04-18T05:33:30.360Z,100292.53
2023-04-18T05:35:57.997Z,100294.03
2023-04-18T05:38:24.864Z,100293.53
2023-04-18T05:40:51.708Z,100294.50
2023-04-18T05:43:19.911Z,100293.69
2023-04-18T05:45:47.343Z,100292.69
2023-04-18T05:48:14.778Z,100291.63
2023-04-18T05:50:41.558Z,100301.06
2023-04-18T05:53:08.400Z,100296.59
2023-04-18T05:55:35.200Z,100296.66
2023-04-18T05:58:01.914Z,100305.84
2023-04-18T06:00:28.747Z,100304.00
2023-04-18T06:02:55.679Z,100308.38
2023-04-18T06:05:22.830Z,100303.66
2023-04-18T06:07:49.806Z,100306.56
2023-04-18T06:10:16.612Z,100314.31
2023-04-18T06:12:43.406Z,100312.66
2023-04-18T06:15:11.012Z,100321.69
2023-04-18T06:17:37.786Z,100312.03
2023-04-18T06:20:06.458Z,100318.25
2023-04-18T06:22:34.346Z,100320.66
2023-04-18T06:25:01.153Z,100317.53
2023-04-18T06:27:31.399Z,100325.53
2023-04-18T06:29:58.826Z,100325.47
2023-04-18T06:32:26.273Z,100330.38
2023-04-18T06:34:53.415Z,100318.94
2023-04-18T06:37:20.933Z,100331.81
2023-04-18T06:39:47.831Z,100327.53
2023-04-18T06:42:14.592Z,100328.31
2023-04-18T06:44:43.264Z,100331.06
2023-04-18T06:47:11.021Z,100338.72
2023-04-18T06:49:37.841Z,100338.25
2023-04-18T06:52:04.726Z,100330.28
2023-04-18T06:54:31.475Z,100328.63
2023-04-18T06:56:58.725Z,100327.66
2023-04-18T06:59:25.570Z,100337.25
2023-04-18T07:01:52.343Z,100334.25
2023-04-18T07:04:19.362Z,100335.28
2023-04-18T07:06:46.509Z,100336.25
2023-04-18T07:09:13.258Z,100341.84
2023-04-18T07:11:40.897Z,100346.03
2023-04-18T07:14:07.650Z,100347.78
2023-04-18T07:16:34.827Z,100339.56
2023-04-18T07:19:01.612Z,100339.44
2023-04-18T07:21:28.582Z,100352.03
2023-04-18T07:23:55.570Z,100346.38
2023-04-18T07:26:22.465Z,100349.88
2023-04-18T07:28:49.614Z,100349.13
2023-04-18T07:31:16.875Z,100349.00
2023-04-18T07:33:46.657Z,100355.00
2023-04-18T07:36:13.407Z,100347.34
2023-04-18T07:38:40.350Z,100351.09
2023-04-18T07:41:07.167Z,100349.63
2023-04-18T07:43:33.933Z,100347.34
2023-04-18T07:46:01.376Z,100352.53
2023-04-18T07:48:28.210Z,100350.25
2023-04-18T07:50:54.984Z,100343.06
2023-04-18T07:53:21.789Z,100353.03
2023-04-18T07:55:48.611Z,100340.88
2023-04-18T07:58:15.846Z,100349.00
2023-04-18T08:00:44.958Z,100352.94
2023-04-18T08:03:13.233Z,100351.13
2023-04-18T08:05:41.544Z,100347.66
2023-04-18T08:08:10.258Z,100341.84
2023-04-18T08:10:37.735Z,100345.25
2023-04-18T08:13:04.796Z,100350.53
2023-04-18T08:15:33.062Z,100349.88
2023-04-18T08:18:00.621Z,100359.38
2023-04-18T08:20:27.771Z,100351.41
2023-04-18T08:23:05.226Z,100359.63
2023-04-18T08:25:36.552Z,100357.94
2023-04-18T08:28:04.325Z,100354.25
2023-04-18T08:30:31.502Z,100362.50
2023-04-18T08:33:00.501Z,100358.47
2023-04-18T08:35:27.610Z,100360.13
2023-04-18T08:37:54.494Z,100354.16
2023-04-18T08:40:21.749Z,100358.47
2023-04-18T08:42:49.490Z,100363.84
2023-04-18T08:45:18.167Z,100350.44
2023-04-18T08:47:45.026Z,100362.38
2023-04-18T08:50:12.900Z,100358.16
2023-04-18T08:52:45.249Z,100358.00
2023-04-18T08:55:11.989Z,100350.50
2023-04-18T08:57:38.880Z,100350.59
2023-04-18T09:00:10.265Z,100345.09
2023-04-18T09:02:47.347Z,100354.06
2023-04-18T09:05:16.780Z,100357.03
2023-04-18T09:07:43.559Z,100350.16
2023-04-18T09:10:11.093Z,100356.72
2023-04-18T09:12:44.874Z,100353.25
2023-04-18T09:15:17.229Z,100355.28
2023-04-18T09:17:49.576Z,100357.72
2023-04-18T09:20:43.892Z,100356.56
2023-04-18T09:23:14.888Z,100355.84
2023-04-18T09:25:44.568Z,100354.31
2023-04-18T09:28:33.307Z,100359.88
2023-04-18T09:31:13.154Z,100350.34
2023-04-18T09:33:45.047Z,100342.16
2023-04-18T09:36:28.996Z,100355.84
2023-04-18T09:38:56.927Z,100347.56
2023-04-18T09:41:24.627Z,100352.03
2023-04-18T09:44:11.554Z,100351.72
2023-04-18T09:46:40.371Z,100341.81
2023-04-18T09:49:09.580Z,100340.31
2023-04-18T09:51:40.531Z,100334.69
2023-04-18T09:54:11.080Z,100339.03
2023-04-18T09:56:41.817Z,100341.78
2023-04-18T09:59:10.132Z,100334.25
2023-04-18T10:01:37.755Z,100341.38
2023-04-18T10:04:07.036Z,100331.84
2023-04-18T10:06:35.045Z,100334.66
2023-04-18T10:09:04.909Z,100337.22
2023-04-18T10:11:32.448Z,100325.59
2023-04-18T10:14:05.050Z,100333.06
2023-04-18T10:16:34.844Z,100338.91
2023-04-18T10:19:26.438Z,100321.84
2023-04-18T10:21:53.894Z,100332.63
2023-04-18T10:24:54.130Z,100326.41
2023-04-18T10:27:49.056Z,100337.38
2023-04-18T10:30:17.112Z,100331.38
2023-04-18T10:32:46.252Z,100331.81
2023-04-18T10:35:13.130Z,100332.63
2023-04-18T10:38:00.149Z,100327.25
2023-04-18T10:40:34.625Z,100325.16
2023-04-18T10:43:01.708Z,100326.22
2023-04-18T10:45:31.220Z,100323.47
2023-04-18T10:48:29.775Z,100321.84
2023-04-18T10:51:16.060Z,100312.91
2023-04-18T10:54:04.405Z,100324.75
2023-04-18T10:56:31.247Z,100328.91
2023-04-18T10:59:03.887Z,100314.34
2023-04-18T11:01:33.302Z,100317.03
2023-04-18T11:04:00.739Z,100314.78
2023-04-18T11:06:28.282Z,100306.47
2023-04-18T11:09:14.663Z,100316.00
2023-04-18T11:11:42.054Z,100307.53
2023-04-18T11:14:09.315Z,100303.66
2023-04-18T11:16:36.783Z,100304.53
2023-04-18T11:19:21.156Z,100300.78
2023-04-18T11:21:48.020Z,100303.38
2023-04-18T11:24:23.107Z,100298.63
2023-04-18T11:26:50.168Z,100289.78
2023-04-18T11:29:18.662Z,100297.59
2023-04-18T11:31:57.768Z,100301.75
2023-04-18T11:34:30.899Z,100295.34
2023-04-18T11:36:58.095Z,100292.63
2023-04-18T11:39:25.020Z,100299.75
2023-04-18T11:41:52.061Z,100300.44
2023-04-18T11:44:24.145Z,100302.09
2023-04-18T11:46:51.674Z,100290.78
2023-04-18T11:49:32.656Z,100302.56
2023-04-18T11:52:01.356Z,100297.06
2023-04-18T11:54:46.146Z,100301.56
2023-04-18T11:57:20.360Z,100305.94
2023-04-18T11:59:52.250Z,100295.63
2023-04-18T12:02:21.007Z,100309.94
2023-04-18T12:04:52.985Z,100292.38
2023-04-18T12:07:32.108Z,100298.56
2023-04-18T12:09:59.199Z,100300.78
2023-04-18T12:12:26.229Z,100308.56
2023-04-18T12:15:00.795Z,100304.09
2023-04-18T12:17:28.327Z,100302.09
2023-04-18T12:19:55.766Z,100300.22
2023-04-18T12:22:40.273Z,100295.47
2023-04-18T12:25:11.022Z,100299.53
2023-04-18T12:27:48.331Z,100298.13
2023-04-18T12:30:16.079Z,100293.63
2023-04-18T12:32:45.080Z,100291.47
2023-04-18T12:35:11.953Z,100287.56
2023-04-18T12:37:38.675Z,100287.50
2023-04-18T12:40:07.360Z,100278.16
2023-04-18T12:42:34.504Z,100286.81
2023-04-18T12:45:03.499Z,100283.44
2023-04-18T12:47:30.435Z,100283.31
2023-04-18T12:49:57.204Z,100282.88
2023-04-18T12:52:24.029Z,100281.56
2023-04-18T12:54:51.003Z,100282.88
2023-04-18T12:57:17.869Z,100282.47
2023-04-18T12:59:44.772Z,100282.97
2023-04-18T13:02:11.762Z,100278.44
2023-04-18T13:04:38.892Z,100270.13
2023-04-18T13:07:06.394Z,100262.56
2023-04-18T13:09:34.136Z,100272.75
2023-04-18T13:12:01.068Z,100279.69
2023-04-18T13:14:27.986Z,100275.88
2023-04-18T13:16:54.948Z,100278.72
2023-04-18T13:19:21.748Z,100272.97
2023-04-18T13:21:49.658Z,100272.22
2023-04-18T13:24:16.674Z,100274.38
2023-04-18T13:26:43.905Z,100272.50
2023-04-18T13:29:10.688Z,100285.59
2023-04-18T13:31:37.529Z,100268.94
2023-04-18T13:34:04.333Z,100275.53
2023-04-18T13:36:32.058Z,100264.81
2023-04-18T13:38:59.294Z,100269.75
2023-04-18T13:41:26.080Z,100278.03
2023-04-18T13:43:53.097Z,100273.88
2023-04-18T13:46:23.777Z,100273.78
2023-04-18T13:48:50.561Z,100275.19
2023-04-18T13:51:20.514Z,100269.59
2023-04-18T13:53:47.489Z,100277.63
2023-04-18T13:56:14.598Z,100276.16
2023-04-18T13:58:41.336Z,100278.94
2023-04-18T14:01:11.525Z,100276.63
2023-04-18T14:03:39.918Z,100270.84
2023-04-18T14:06:08.384Z,100270.47
2023-04-18T14:08:35.323Z,100272.63
2023-04-18T14:11:02.069Z,100275.72
2023-04-18T14:13:28.864Z,100277.03
2023-04-18T14:15:55.814Z,100284.31
2023-04-18T14:18:23.851Z,100280.75
2023-04-18T14:20:51.558Z,100277.75
2023-04-18T14:23:19.054Z,100283.47
2023-04-18T14:25:45.961Z,100290.31
2023-04-18T14:28:12.758Z,100287.84
2023-04-18T14:30:40.180Z,100282.66
2023-04-18T14:33:09.789Z,100273.63
2023-04-18T14:35:36.736Z,100280.69
2023-04-18T14:38:03.776Z,100282.06
2023-04-18T14:40:32.753Z,100287.09
2023-04-18T14:42:59.904Z,100283.59
2023-04-18T14:45:26.661Z,100282.69
2023-04-18T14:47:55.858Z,100285.97
2023-04-18T14:50:22.966Z,100283.94
2023-04-18T14:52:49.700Z,100281.72
2023-04-18T14:55:16.600Z,100277.19
2023-04-18T14:57:43.362Z,100280.97
2023-04-18T15:00:13.273Z,100276.75
2023-04-18T15:02:41.101Z,100268.00
2023-04-18T15:05:08.845Z,100283.91
2023-04-18T15:07:37.757Z,100279.09
2023-04-18T15:10:05.354Z,100280.75
2023-04-18T15:12:33.196Z,100275.75
2023-04-18T15:15:00.693Z,100283.00
2023-04-18T15:17:28.348Z,100279.69
2023-04-18T15:19:55.159Z,100288.72
2023-04-18T15:22:22.154Z,100289.19
2023-04-18T15:24:49.196Z,100291.81
2023-04-18T15:27:16.042Z,100290.91
2023-04-18T15:29:42.905Z,100284.41
2023-04-18T15:32:10.496Z,100287.81
2023-04-18T15:34:37.421Z,100290.06
2023-04-18T15:37:04.851Z,100283.47
2023-04-18T15:39:31.707Z,100301.75
2023-04-18T15:41:58.486Z,100291.81
2023-04-18T15:44:25.500Z,100288.31
2023-04-18T15:46:52.305Z,100289.78
2023-04-18T15:49:19.137Z,100300.16
2023-04-18T15:51:46.077Z,100285.66
2023-04-18T15:54:13.082Z,100291.91
2023-04-18T15:56:39.994Z,100298.97
2023-04-18T15:59:07.456Z,100298.16
2023-04-18T16:01:35.846Z,100301.88
2023-04-18T16:04:03.047Z,100302.47
2023-04-18T16:06:33.528Z,100301.47
2023-04-18T16:09:00.332Z,100304.38
2023-04-18T16:11:28.022Z,100311.41
2023-04-18T16:13:56.231Z,100301.47
2023-04-18T16:16:26.898Z,100311.03
2023-04-18T16:18:53.907Z,100313.94
2023-04-18T16:21:21.242Z,100323.09
2023-04-18T16:23:49.040Z,100312.25
2023-04-18T16:26:16.020Z,100326.78
2023-04-18T16:28:42.900Z,100325.94
2023-04-18T16:31:09.991Z,100329.06
2023-04-18T16:33:37.051Z,100332.50
2023-04-18T16:36:04.808Z,100321.25
2023-04-18T16:38:32.265Z,100319.66
2023-04-18T16:41:01.385Z,100319.69
2023-04-18T16:43:30.022Z,100330.03
2023-04-18T16:45:58.042Z,100330.44
2023-04-18T16:48:29.417Z,100334.06
2023-04-18T16:50:56.694Z,100331.25
2023-04-18T16:53:24.537Z,100336.19
2023-04-18T16:55:52.419Z,100339.88
2023-04-18T16:58:21.543Z,100341.19
2023-04-18T17:00:48.577Z,100338.22
2023-04-18T17:03:15.882Z,100344.16
2023-04-18T17:05:42.863Z,100348.16
2023-04-18T17:08:12.777Z,100344.72
2023-04-18T17:10:43.059Z,100350.53
2023-04-18T17:13:09.925Z,100346.78
2023-04-18T17:15:37.288Z,100357.31
2023-04-18T17:18:04.460Z,100355.84
2023-04-18T17:20:31.542Z,100356.66
2023-04-18T17:22:58.966Z,100349.34
2023-04-18T17:25:26.401Z,100338.31
2023-04-18T17:27:53.388Z,100364.69
2023-04-18T17:30:20.765Z,100358.03
2023-04-18T17:32:51.031Z,100354.94
2023-04-18T17:35:18.367Z,100360.25
2023-04-18T17:37:47.851Z,100356.16
2023-04-18T17:40:15.407Z,100356.47
2023-04-18T17:42:42.864Z,100356.94
2023-04-18T17:45:10.424Z,100362.72
2023-04-18T17:47:37.941Z,100362.06
2023-04-18T17:50:05.483Z,100368.94
2023-04-18T17:52:32.843Z,100367.59
2023-04-18T17:55:01.840Z,100372.09
2023-04-18T17:57:31.300Z,100381.47
2023-04-18T17:59:59.464Z,100377.69
2023-04-18T18:02:28.913Z,100375.44
2023-04-18T18:04:56.692Z,100388.22
2023-04-18T18:07:23.916Z,100372.00
2023-04-18T18:09:53.917Z,100391.16
2023-04-18T18:12:22.082Z,100384.94
2023-04-18T18:14:50.974Z,100382.78
2023-04-18T18:17:23.492Z,100384.63
2023-04-18T18:19:56.031Z,100389.38
2023-04-18T18:22:26.956Z,100388.34
2023-04-18T18:24:54.015Z,100398.69
2023-04-18T18:27:21.140Z,100401.47
2023-04-18T18:29:51.364Z,100393.94
2023-04-18T18:32:18.962Z,100406.56
2023-04-18T18:34:46.426Z,100405.94
2023-04-18T18:37:13.596Z,100404.28
2023-04-18T18:39:41.902Z,100402.19
2023-04-18T18:42:10.782Z,100402.81
2023-04-18T18:44:39.422Z,100413.47
2023-04-18T18:47:07.655Z,100413.22
2023-04-18T18:49:37.132Z,100422.31
2023-04-18T18:52:06.164Z,100421.38
2023-04-18T18:54:33.656Z,100426.91
2023-04-18T18:57:04.147Z,100430.47
2023-04-18T18:59:32.761Z,100431.91
2023-04-18T19:01:59.995Z,100429.13
2023-04-18T19:04:28.019Z,100428.28
2023-04-18T19:06:56.877Z,100434.41
2023-04-18T19:09:24.014Z,100435.16
2023-04-18T19:11:51.825Z,100436.53
2023-04-18T19:14:19.147Z,100440.91
2023-04-18T19:16:46.560Z,100443.88
2023-04-18T19:19:15.598Z,100441.19
2023-04-18T19:21:46.212Z,100443.88
2023-04-18T19:24:13.702Z,100442.31
2023-04-18T19:26:42.124Z,100443.34
2023-04-18T19:29:11.097Z,100449.09
2023-04-18T19:31:38.134Z,100452.25
2023-04-18T19:34:05.252Z,100446.09
2023-04-18T19:36:32.290Z,100449.25
2023-04-18T19:38:59.177Z,100453.78
2023-04-18T19:41:26.471Z,100454.63
2023-04-18T19:43:57.035Z,100452.41
2023-04-18T19:46:27.017Z,100453.97
2023-04-18T19:48:57.314Z,100448.78
2023-04-18T19:51:25.035Z,100442.44
2023-04-18T19:53:55.881Z,100450.03
2023-04-18T19:56:23.309Z,100452.81
2023-04-18T19:58:50.474Z,100459.03
2023-04-18T20:01:22.647Z,100458.75
2023-04-18T20:03:49.760Z,100457.13
2023-04-18T20:06:18.086Z,100455.09
2023-04-18T20:08:46.297Z,100460.34
2023-04-18T20:11:16.877Z,100458.50
2023-04-18T20:13:43.695Z,100455.50
2023-04-18T20:16:14.253Z,100451.91
2023-04-18T20:18:41.974Z,100453.09
2023-04-18T20:21:10.247Z,100463.84
2023-04-18T20:23:37.838Z,100459.66
2023-04-18T20:26:04.844Z,100468.38
2023-04-18T20:28:32.336Z,100473.03
2023-04-18T20:30:59.594Z,100463.56
2023-04-18T20:33:26.699Z,100454.69
2023-04-18T20:35:54.866Z,100458.03
2023-04-18T20:38:26.163Z,100465.72
2023-04-18T20:40:53.540Z,100465.38
2023-04-18T20:43:20.809Z,100472.41
2023-04-18T20:45:54.668Z,100465.72
2023-04-18T20:48:21.522Z,100469.19
2023-04-18T20:50:51.683Z,100472.06
2023-04-18T20:53:26.387Z,100470.38
2023-04-18T20:55:53.582Z,100468.84
2023-04-18T20:58:20.756Z,100463.81
2023-04-18T21:00:49.122Z,100464.66
2023-04-18T21:03:17.059Z,100464.47
2023-04-18T21:05:47.525Z,100460.13
2023-04-18T21:08:14.348Z,100456.78
2023-04-18T21:10:41.398Z,100457.25
2023-04-18T21:13:09.434Z,100463.47
2023-04-18T21:15:36.317Z,100466.81
2023-04-18T21:18:03.155Z,100465.84
2023-04-18T21:20:30.026Z,100464.81
2023-04-18T21:22:56.841Z,100462.97
2023-04-18T21:25:23.613Z,100464.81
2023-04-18T21:27:51.007Z,100464.16
2023-04-18T21:30:17.875Z,100464.16
2023-04-18T21:32:46.170Z,100466.19
2023-04-18T21:35:13.461Z,100464.53
2023-04-18T21:37:40.257Z,100462.50
2023-04-18T21:40:07.841Z,100460.00
2023-04-18T21:42:35.720Z,100462.84
2023-04-18T21:45:02.695Z,100463.88
2023-04-18T21:47:29.490Z,100462.97
2023-04-18T21:49:56.273Z,100465.00
2023-04-18T21:52:23.182Z,100460.81
2023-04-18T21:54:49.962Z,100456.28
2023-04-18T21:57:16.862Z,100457.13
2023-04-18T21:59:43.703Z,100460.16
2023-04-18T22:02:10.523Z,100456.16
2023-04-18T22:04:38.261Z,100449.50
2023-04-18T22:07:05.091Z,100452.66
2023-04-18T22:09:34.567Z,100458.84
2023-04-18T22:12:03.711Z,100454.50
2023-04-18T22:14:34.272Z,100447.44
2023-04-18T22:17:03.664Z,100445.34
2023-04-18T22:19:31.552Z,100439.78
2023-04-18T22:21:58.711Z,100439.97
2023-04-18T22:24:26.236Z,100438.38
2023-04-18T22:26:53.866Z,100439.84
2023-04-18T22:29:20.699Z,100432.78
2023-04-18T22:31:47.722Z,100435.78
2023-04-18T22:34:14.721Z,100435.44
2023-04-18T22:36:42.947Z,100439.19
2023-04-18T22:39:09.923Z,100440.84
2023-04-18T22:41:36.885Z,100439.53
2023-04-18T22:44:06.549Z,100434.81
2023-04-18T22:46:33.539Z,100434.81
2023-04-18T22:49:00.887Z,100435.66
2023-04-18T22:51:29.018Z,100436.84
2023-04-18T22:53:56.594Z,100442.88
2023-04-18T22:56:25.281Z,100429.44
2023-04-18T22:58:52.309Z,100441.88
2023-04-18T23:01:19.175Z,100440.19
2023-04-18T23:03:46.118Z,100431.84
2023-04-18T23:06:13.172Z,100428.13
2023-04-18T23:08:40.097Z,100432.53
2023-04-18T23:11:06.816Z,100437.88
2023-04-18T23:13:33.578Z,100436.19
2023-04-18T23:16:00.471Z,100434.22
2023-04-18T23:18:30.215Z,100435.78
2023-04-18T23:20:56.991Z,100439.00
2023-04-18T23:23:23.789Z,100430.47
2023-04-18T23:25:50.553Z,100426.13
2023-04-18T23:28:17.687Z,100428.97
2023-04-18T23:30:44.665Z,100429.34
2023-04-18T23:33:11.603Z,100428.63
2023-04-18T23:35:38.323Z,100433.53
2023-04-18T23:38:07.601Z,100435.03
2023-04-18T23:40:35.341Z,100438.06
2023-04-18T23:43:04.869Z,100430.34
2023-04-18T23:45:31.873Z,100429.00
2023-04-18T23:47:58.656Z,100425.66
2023-04-18T23:50:25.698Z,100434.69
2023-04-18T23:52:52.479Z,100433.03
2023-04-18T23:55:19.256Z,100431.66
2023-04-18T23:57:46.074Z,100421.41
